Startpagina
METAR-TAF:

METAR-TAF

Vliegvelden :

Guilin, China

breedte: 25-20N, lengte: 110-18E, hoogte: 166 m

Actueel weer

Dit bericht is 27 minuten geleden gemaakt, om 18:00 UTC
Wind 2 kt uit variabele richting
Temperatuur 10°C
Vochtigheid 93%
Druk 1019 hPa
Zicht: 2000 m
Weinig wolken op 1100 ft
Gebroken wolken op 2000 ft
Geheel bewolkt op 3300 ft
lichte regen, nevel

METAR: ZGKL 231800Z VRB01MPS 2000 -RA BR FEW011 BKN020 OVC033 10/09 Q1019 NOSIG

Tijdstip: 02:27 (18:27 UTC)

Verwachting

Dit bericht is 3 uur en het 16 minuten geleden gemaakt, om 15:11 UTC
Verwachting geldig van 23 om 18 UTC tot 24 om 18 UTC
Wind 4 kt uit het zuiden
Zicht: 2000 m
Weinig wolken op 800 ft
Gebroken wolken op 2600 ft
Geheel bewolkt op 4000 ft
lichte regen, nevel
Wijzigt naar
van 24 om 01 UTC tot 24 om 02 UTC
Zicht: 3500 m

TAF: ZGKL 231511Z 2318/2418 18002MPS 2000 -RA BR FEW008 BKN026 OVC040 TX13/2408Z TN08/2322Z BECMG 2401/2402 3500

Waarnemingen en weersverwachtingen van meer dan 4000 vliegvelden (METAR en TAF).

De beschikbare stations zijn de gele en rode punten op de kaart.

Ga met uw muis naar het station om de naam te zien.

Klik dan om waarnemingen en weersverwachtingen te zien.

kaart wijzigen: klik op de groene knoppen met een zwart kruis om in te zoomen, op de groene knop met een streepje om uit te zoomen of op de groene pijlen voor aangrenzende kaarten.


METAR-TAF: